Time;durP1;ratioP1;P1;durP2;ratioP2;P2;SDS_P1;SDS_P2;PMS_P1;PMS_P2;Temp;Humidity;BMP_temperature;BMP_pressure;BME280_temperature;BME280_humidity;BME280_pressure;Samples;Min_cycle;Max_cycle;Signal;HPM_P1;HPM_P2
2024/01/18 00:00:27;;;;;;;2.83;2.63;;;21.90;50.70;;;;;;5051959;28;22307;-80
2024/01/18 00:02:54;;;;;;;2.80;2.33;;;21.90;50.70;;;;;;5039142;28;20814;-80
2024/01/18 00:05:23;;;;;;;2.60;1.90;;;21.90;50.70;;;;;;5032943;28;20464;-78
2024/01/18 00:07:51;;;;;;;2.53;2.23;;;21.90;50.70;;;;;;5038927;28;20502;-80
2024/01/18 00:10:26;;;;;;;2.67;2.30;;;21.90;50.70;;;;;;5051290;28;20465;-79
2024/01/18 00:12:55;;;;;;;3.47;2.87;;;21.90;50.70;;;;;;5053561;28;20952;-79
2024/01/18 00:15:24;;;;;;;2.80;2.60;;;21.90;50.70;;;;;;5046629;28;20473;-78
2024/01/18 00:17:52;;;;;;;2.17;1.97;;;21.90;50.60;;;;;;5052617;28;20453;-78
2024/01/18 00:20:22;;;;;;;2.20;1.97;;;21.90;50.60;;;;;;5046155;28;20472;-78
2024/01/18 00:22:50;;;;;;;1.87;1.77;;;21.90;50.70;;;;;;5053786;28;20461;-78
2024/01/18 00:25:19;;;;;;;2.27;2.07;;;21.90;50.80;;;;;;5048835;28;20524;-75
2024/01/18 00:27:47;;;;;;;2.53;2.33;;;21.90;50.80;;;;;;5053792;28;20458;-79
2024/01/18 00:30:18;;;;;;;2.33;2.10;;;21.90;50.70;;;;;;5054414;28;20971;-79
2024/01/18 00:32:47;;;;;;;1.70;1.60;;;21.90;50.70;;;;;;5046650;28;20466;-77
2024/01/18 00:35:15;;;;;;;1.87;1.77;;;21.90;50.70;;;;;;5049011;28;20468;-79
2024/01/18 00:37:44;;;;;;;2.43;2.00;;;21.90;50.70;;;;;;5042597;28;21061;-78
2024/01/18 00:40:13;;;;;;;2.07;1.73;;;21.90;50.80;;;;;;5040493;28;20539;-79
2024/01/18 00:42:42;;;;;;;2.20;1.90;;;21.90;50.80;;;;;;5050301;28;21085;-78
2024/01/18 00:45:10;;;;;;;1.80;1.70;;;21.90;50.80;;;;;;5052908;28;20551;-79
2024/01/18 00:47:40;;;;;;;1.73;1.63;;;21.90;50.80;;;;;;5046161;28;20806;-79
2024/01/18 00:50:09;;;;;;;2.10;1.90;;;21.80;50.80;;;;;;5052487;28;20498;-78
2024/01/18 00:52:37;;;;;;;1.87;1.77;;;21.80;50.90;;;;;;5043670;28;20476;-79
2024/01/18 00:55:06;;;;;;;1.90;1.80;;;21.80;50.70;;;;;;5039849;28;21003;-78
2024/01/18 00:57:34;;;;;;;1.80;1.70;;;21.80;50.70;;;;;;5049086;28;20491;-79
2024/01/18 01:00:03;;;;;;;1.70;1.60;;;21.80;50.70;;;;;;5052714;28;20467;-76
2024/01/18 01:02:32;;;;;;;2.53;2.23;;;21.80;50.60;;;;;;5059052;28;20450;-80
2024/01/18 01:05:01;;;;;;;2.20;1.67;;;21.80;50.70;;;;;;5046294;28;20971;-80
2024/01/18 01:07:29;;;;;;;1.40;1.30;;;21.80;50.70;;;;;;5056702;28;20496;-79
2024/01/18 01:09:59;;;;;;;1.70;1.60;;;21.80;50.60;;;;;;5054183;28;20457;-80
2024/01/18 01:12:27;;;;;;;1.67;1.40;;;21.80;50.60;;;;;;5047226;28;20468;-81
2024/01/18 01:14:55;;;;;;;1.67;1.57;;;21.80;50.50;;;;;;5047411;28;20802;-82
2024/01/18 01:17:24;;;;;;;1.63;1.30;;;21.80;50.60;;;;;;5052650;28;20481;-79
2024/01/18 01:19:52;;;;;;;1.60;1.50;;;21.80;50.60;;;;;;5051157;28;20452;-82
2024/01/18 01:22:22;;;;;;;1.40;1.30;;;21.80;50.70;;;;;;5040183;28;20463;-80
2024/01/18 01:24:50;;;;;;;1.40;1.30;;;21.80;50.90;;;;;;5052841;28;20456;-80
2024/01/18 01:27:18;;;;;;;1.70;1.60;;;21.80;50.70;;;;;;5047214;28;20510;-81
2024/01/18 01:29:46;;;;;;;1.47;1.37;;;21.80;50.60;;;;;;5051985;28;20930;-82
2024/01/18 01:32:15;;;;;;;1.10;1.00;;;21.80;50.80;;;;;;5051758;28;20457;-82
2024/01/18 01:34:43;;;;;;;2.07;1.53;;;21.70;50.60;;;;;;5051599;28;20450;-82
2024/01/18 01:37:13;;;;;;;1.57;1.47;;;21.70;50.90;;;;;;5046946;28;20510;-82
2024/01/18 01:39:43;;;;;;;1.40;1.30;;;21.70;50.60;;;;;;5049681;28;20493;-82
2024/01/18 01:42:11;;;;;;;1.00;1.00;;;21.70;50.60;;;;;;5052034;28;20492;-81
2024/01/18 01:44:39;;;;;;;1.20;1.10;;;21.70;50.50;;;;;;5049957;28;20457;-81
2024/01/18 01:47:07;;;;;;;1.20;1.10;;;21.70;50.50;;;;;;5051549;28;20454;-81
2024/01/18 01:49:36;;;;;;;1.53;1.43;;;21.70;50.60;;;;;;5051709;28;20469;-80
2024/01/18 01:52:05;;;;;;;1.37;1.27;;;21.70;50.60;;;;;;5052459;28;20452;-81
2024/01/18 01:54:33;;;;;;;1.10;1.00;;;21.70;50.90;;;;;;5042147;28;20605;-79
2024/01/18 01:57:04;;;;;;;1.23;1.17;;;21.70;50.90;;;;;;5047321;28;20432;-77
2024/01/18 01:59:34;;;;;;;1.40;1.30;;;21.70;50.80;;;;;;5051678;28;20460;-82
2024/01/18 02:02:04;;;;;;;1.10;1.00;;;21.70;51.00;;;;;;5046024;28;20528;-82
2024/01/18 02:04:32;;;;;;;0.97;0.90;;;21.70;51.00;;;;;;5049356;28;21046;-79
2024/01/18 02:07:00;;;;;;;0.83;0.83;;;21.70;51.10;;;;;;5051689;28;20796;-82
2024/01/18 02:09:29;;;;;;;1.80;0.87;;;21.60;51.00;;;;;;5044299;28;20455;-81
2024/01/18 02:11:58;;;;;;;1.37;1.27;;;21.60;51.10;;;;;;5051117;28;20564;-81
2024/01/18 02:14:29;;;;;;;1.30;1.20;;;21.60;51.10;;;;;;5044625;28;20837;-81
2024/01/18 02:16:57;;;;;;;1.47;1.20;;;21.60;51.10;;;;;;5047136;28;20810;-81
2024/01/18 02:19:25;;;;;;;0.90;0.90;;;21.60;51.00;;;;;;5050624;28;20616;-80
2024/01/18 02:21:54;;;;;;;0.97;0.97;;;21.60;50.90;;;;;;5051122;28;20450;-81
2024/01/18 02:24:30;;;;;;;0.80;0.80;;;21.50;51.00;;;;;;5035978;28;20544;-80
2024/01/18 02:27:01;;;;;;;1.20;1.20;;;21.50;51.10;;;;;;5040185;28;20454;-80
2024/01/18 02:29:29;;;;;;;1.13;1.00;;;21.50;51.20;;;;;;5048524;28;20465;-80
2024/01/18 02:31:57;;;;;;;0.70;0.70;;;21.50;51.10;;;;;;5050155;28;20446;-80
2024/01/18 02:34:26;;;;;;;0.90;0.90;;;21.50;51.20;;;;;;5051017;28;20469;-80
2024/01/18 02:36:54;;;;;;;0.80;0.80;;;21.50;51.10;;;;;;5050621;28;20462;-79
2024/01/18 02:39:23;;;;;;;0.80;0.80;;;21.50;51.10;;;;;;5042758;28;20465;-79
2024/01/18 02:41:51;;;;;;;0.80;0.80;;;21.50;51.00;;;;;;5048464;28;20878;-80
2024/01/18 02:44:21;;;;;;;0.67;0.67;;;21.50;51.10;;;;;;5045037;28;20457;-80
2024/01/18 02:46:49;;;;;;;1.03;0.93;;;21.40;50.90;;;;;;5050848;28;20462;-80
2024/01/18 02:49:18;;;;;;;0.77;0.77;;;21.40;51.10;;;;;;5050182;28;20449;-79
2024/01/18 02:51:46;;;;;;;0.80;0.80;;;21.40;51.00;;;;;;5050721;28;20966;-80
2024/01/18 02:54:14;;;;;;;0.60;0.60;;;21.40;51.00;;;;;;5043161;28;20825;-77
2024/01/18 02:56:42;;;;;;;0.50;0.50;;;21.40;50.90;;;;;;5052018;28;20524;-80
2024/01/18 02:59:11;;;;;;;1.00;0.90;;;21.40;50.90;;;;;;5044168;28;20535;-76
2024/01/18 03:01:41;;;;;;;0.60;0.60;;;21.40;51.10;;;;;;5052252;28;20427;-80
2024/01/18 03:04:09;;;;;;;1.33;0.90;;;21.40;51.20;;;;;;5044071;28;20454;-80
2024/01/18 03:06:37;;;;;;;0.80;0.80;;;21.40;51.20;;;;;;5051511;28;20950;-80
2024/01/18 03:09:05;;;;;;;0.67;0.67;;;21.40;51.20;;;;;;5048811;28;20454;-73
2024/01/18 03:11:34;;;;;;;0.63;0.63;;;21.40;51.20;;;;;;5040288;28;20455;-75
2024/01/18 03:14:02;;;;;;;0.67;0.67;;;21.40;51.10;;;;;;5048368;28;20527;-80
2024/01/18 03:16:30;;;;;;;0.60;0.60;;;21.40;51.20;;;;;;5044705;28;20819;-80
2024/01/18 03:18:59;;;;;;;0.90;0.67;;;21.30;51.30;;;;;;5051118;28;20490;-80
2024/01/18 03:21:28;;;;;;;0.67;0.67;;;21.30;51.20;;;;;;5048941;28;20448;-80
2024/01/18 03:23:56;;;;;;;1.20;0.67;;;21.30;51.20;;;;;;5051512;28;20859;-79
2024/01/18 03:26:24;;;;;;;0.70;0.70;;;21.30;51.10;;;;;;5047954;28;20464;-77
2024/01/18 03:28:52;;;;;;;0.60;0.57;;;21.30;51.20;;;;;;5063995;28;20455;-79
2024/01/18 03:31:21;;;;;;;0.53;0.53;;;21.30;51.20;;;;;;5050186;28;20463;-76
2024/01/18 03:33:49;;;;;;;1.30;0.60;;;21.30;51.20;;;;;;5050462;28;21018;-80
2024/01/18 03:36:19;;;;;;;0.90;0.60;;;21.30;51.20;;;;;;5050184;28;20452;-79
2024/01/18 03:38:47;;;;;;;1.03;0.83;;;21.30;51.20;;;;;;5050861;28;20506;-79
2024/01/18 03:41:16;;;;;;;0.40;0.40;;;21.30;51.20;;;;;;5049953;28;20458;-79
2024/01/18 03:43:44;;;;;;;0.73;0.70;;;21.30;51.20;;;;;;5043104;28;20457;-79
2024/01/18 03:46:14;;;;;;;0.53;0.50;;;21.30;51.20;;;;;;5046277;28;20801;-82
2024/01/18 03:48:43;;;;;;;0.70;0.70;;;21.30;51.10;;;;;;5044219;28;20468;-81
2024/01/18 03:51:11;;;;;;;0.60;0.60;;;21.20;51.20;;;;;;5053434;28;20971;-81
2024/01/18 03:53:44;;;;;;;0.97;0.90;;;21.20;51.10;;;;;;5053275;28;20452;-78
2024/01/18 03:56:12;;;;;;;1.20;0.77;;;21.20;51.20;;;;;;5049251;28;20461;-79
2024/01/18 03:58:42;;;;;;;0.70;0.70;;;21.20;51.30;;;;;;5046447;28;20471;-79
2024/01/18 04:01:10;;;;;;;0.60;0.60;;;21.20;51.30;;;;;;5053868;28;20466;-74
2024/01/18 04:03:39;;;;;;;0.97;0.63;;;21.20;51.10;;;;;;5043566;28;20550;-80
2024/01/18 04:06:10;;;;;;;0.40;0.40;;;21.20;51.10;;;;;;5053581;28;20553;-80
2024/01/18 04:08:40;;;;;;;0.67;0.60;;;21.20;51.10;;;;;;5052821;28;20872;-80
2024/01/18 04:11:09;;;;;;;0.50;0.50;;;21.20;51.00;;;;;;5061524;28;20463;-80
2024/01/18 04:13:37;;;;;;;0.40;0.40;;;21.20;51.10;;;;;;5058186;28;20964;-79
2024/01/18 04:16:05;;;;;;;0.90;0.73;;;21.20;51.10;;;;;;5066175;28;20617;-79
2024/01/18 04:18:34;;;;;;;0.43;0.43;;;21.20;51.10;;;;;;5055605;28;20444;-80
2024/01/18 04:21:02;;;;;;;0.53;0.53;;;21.20;51.20;;;;;;5053681;28;20954;-79
2024/01/18 04:23:30;;;;;;;0.50;0.50;;;21.20;51.10;;;;;;5052664;28;20459;-79
2024/01/18 04:26:00;;;;;;;0.50;0.50;;;21.20;51.10;;;;;;5051688;28;20469;-79
2024/01/18 04:28:28;;;;;;;0.63;0.63;;;21.20;51.20;;;;;;5054162;28;20904;-79
2024/01/18 04:30:56;;;;;;;0.50;0.50;;;21.20;51.30;;;;;;5052210;28;20463;-79
2024/01/18 04:33:25;;;;;;;0.40;0.40;;;21.20;51.40;;;;;;5060948;28;20460;-77
2024/01/18 04:35:53;;;;;;;0.70;0.50;;;21.20;51.40;;;;;;5050367;28;20858;-78
2024/01/18 04:38:21;;;;;;;0.60;0.60;;;21.30;51.40;;;;;;5052283;28;20566;-78
2024/01/18 04:40:50;;;;;;;0.60;0.50;;;21.30;51.40;;;;;;5053311;28;20444;-78
2024/01/18 04:43:20;;;;;;;0.50;0.47;;;21.30;51.30;;;;;;5053416;28;20449;-78
2024/01/18 04:45:48;;;;;;;0.57;0.57;;;21.40;51.40;;;;;;5051370;28;20459;-79
2024/01/18 04:48:17;;;;;;;0.50;0.50;;;21.40;51.30;;;;;;5045902;28;20453;-78
2024/01/18 04:50:45;;;;;;;0.70;0.40;;;21.50;51.10;;;;;;5050835;28;20447;-79
2024/01/18 04:53:14;;;;;;;0.50;0.50;;;21.50;51.00;;;;;;5053313;28;20471;-80
2024/01/18 04:55:43;;;;;;;0.70;0.70;;;21.50;50.90;;;;;;5047147;28;20872;-76
2024/01/18 04:58:11;;;;;;;0.70;0.70;;;21.50;51.00;;;;;;5045714;28;20535;-80
2024/01/18 05:00:41;;;;;;;0.50;0.50;;;21.50;50.90;;;;;;5054164;28;20542;-81
2024/01/18 05:03:09;;;;;;;0.50;0.50;;;21.60;50.90;;;;;;5046897;28;20541;-80
2024/01/18 05:05:37;;;;;;;0.60;0.60;;;21.60;51.00;;;;;;5054716;28;21001;-79
2024/01/18 05:08:07;;;;;;;1.57;0.70;;;21.60;51.00;;;;;;5058784;28;20496;-80
2024/01/18 05:10:35;;;;;;;0.60;0.60;;;21.60;50.90;;;;;;5052896;28;20504;-79
2024/01/18 05:13:03;;;;;;;0.97;0.67;;;21.70;50.90;;;;;;5047576;28;21423;-80
2024/01/18 05:15:32;;;;;;;0.60;0.53;;;21.70;50.80;;;;;;5043580;28;20470;-76
2024/01/18 05:18:02;;;;;;;1.43;1.33;;;21.70;50.80;;;;;;5046906;28;20467;-81
2024/01/18 05:20:30;;;;;;;0.70;0.70;;;21.70;50.80;;;;;;5046616;28;20487;-81
2024/01/18 05:22:59;;;;;;;0.50;0.50;;;21.80;50.70;;;;;;5049142;28;20462;-77
2024/01/18 05:25:27;;;;;;;0.70;0.60;;;21.80;50.60;;;;;;5049463;28;20461;-79
2024/01/18 05:27:56;;;;;;;0.70;0.70;;;21.80;50.60;;;;;;5048630;28;20813;-78
2024/01/18 05:30:24;;;;;;;1.10;0.80;;;21.80;50.50;;;;;;5044934;28;20570;-79
2024/01/18 05:32:52;;;;;;;0.80;0.50;;;21.90;50.50;;;;;;5053754;28;20887;-78
2024/01/18 05:35:22;;;;;;;0.60;0.60;;;21.90;50.40;;;;;;5048188;28;20479;-78
2024/01/18 05:37:50;;;;;;;0.53;0.50;;;21.90;50.50;;;;;;5056655;28;20987;-79
2024/01/18 05:40:21;;;;;;;0.90;0.50;;;21.90;50.40;;;;;;5042669;28;20523;-78
2024/01/18 05:42:49;;;;;;;0.70;0.70;;;21.90;50.40;;;;;;5051363;28;20452;-79
2024/01/18 05:45:18;;;;;;;0.83;0.60;;;21.80;50.50;;;;;;5048341;28;20479;-78
2024/01/18 05:47:46;;;;;;;0.93;0.90;;;21.80;50.40;;;;;;5058486;28;20460;-78
2024/01/18 05:50:14;;;;;;;0.60;0.60;;;21.80;50.40;;;;;;5049679;28;20445;-78
2024/01/18 05:52:44;;;;;;;0.40;0.40;;;21.80;50.50;;;;;;5043478;28;20783;-83
2024/01/18 05:55:12;;;;;;;0.70;0.70;;;21.70;50.50;;;;;;5040361;28;20476;-78
2024/01/18 05:57:41;;;;;;;0.60;0.50;;;21.70;50.60;;;;;;5049300;28;21119;-77
2024/01/18 06:00:11;;;;;;;0.57;0.57;;;21.70;50.70;;;;;;5039976;28;20460;-79
2024/01/18 06:02:39;;;;;;;0.50;0.50;;;21.70;50.90;;;;;;5047647;28;20884;-75
2024/01/18 06:05:09;;;;;;;0.50;0.50;;;21.70;51.20;;;;;;5052879;28;20531;-76
2024/01/18 06:07:40;;;;;;;0.80;0.70;;;21.70;51.40;;;;;;5052622;28;21034;-75
2024/01/18 06:10:10;;;;;;;0.50;0.50;;;21.70;51.50;;;;;;5044104;28;20981;-77
2024/01/18 06:12:38;;;;;;;0.50;0.50;;;21.70;51.60;;;;;;5050985;28;20485;-75
2024/01/18 06:15:07;;;;;;;1.83;1.00;;;21.70;51.80;;;;;;5048711;28;20475;-76
2024/01/18 06:17:36;;;;;;;0.40;0.40;;;21.70;52.00;;;;;;5056826;28;20468;-74
2024/01/18 06:20:05;;;;;;;0.60;0.60;;;21.70;52.20;;;;;;5051359;28;20453;-75
2024/01/18 06:22:33;;;;;;;0.87;0.57;;;21.70;52.30;;;;;;5041054;28;20544;-75
2024/01/18 06:25:03;;;;;;;0.70;0.50;;;21.70;52.40;;;;;;5044600;28;20457;-75
2024/01/18 06:27:33;;;;;;;2.73;0.60;;;21.70;52.40;;;;;;5045864;28;20583;-75
2024/01/18 06:30:01;;;;;;;0.70;0.60;;;21.80;52.40;;;;;;5045012;28;20456;-75
2024/01/18 06:32:30;;;;;;;0.60;0.57;;;21.80;52.40;;;;;;5039850;28;20527;-75
2024/01/18 06:34:59;;;;;;;2.13;0.77;;;21.80;52.40;;;;;;5045320;28;20540;-75
2024/01/18 06:37:27;;;;;;;2.10;1.00;;;21.90;52.40;;;;;;5046522;28;20450;-75
2024/01/18 06:39:55;;;;;;;2.73;0.90;;;21.90;52.30;;;;;;5038160;28;20461;-75
2024/01/18 06:42:24;;;;;;;0.90;0.60;;;21.90;52.20;;;;;;5033028;28;20462;-74
2024/01/18 06:44:53;;;;;;;0.63;0.63;;;21.90;52.20;;;;;;5032607;28;20459;-75
2024/01/18 06:47:21;;;;;;;0.60;0.60;;;21.90;52.20;;;;;;5037146;28;20450;-75
2024/01/18 06:49:50;;;;;;;1.20;1.00;;;21.80;52.10;;;;;;5037768;28;20460;-75
2024/01/18 06:52:18;;;;;;;1.13;0.80;;;21.80;52.10;;;;;;5039083;28;20898;-75
2024/01/18 06:54:46;;;;;;;4.47;1.97;;;21.80;52.10;;;;;;5036314;28;20462;-75
2024/01/18 06:57:17;;;;;;;1.10;0.43;;;21.80;52.10;;;;;;5055984;28;21048;-75
2024/01/18 06:59:46;;;;;;;3.40;0.70;;;21.80;52.00;;;;;;5045818;28;20456;-75
2024/01/18 07:02:16;;;;;;;1.63;1.13;;;21.80;52.10;;;;;;5043748;28;20449;-75
2024/01/18 07:04:45;;;;;;;1.37;1.20;;;21.80;52.10;;;;;;5043156;28;20470;-74
2024/01/18 07:07:13;;;;;;;0.73;0.73;;;21.80;52.10;;;;;;5037283;28;20573;-76
2024/01/18 07:09:41;;;;;;;1.07;0.80;;;21.70;52.10;;;;;;5036896;28;20490;-75
2024/01/18 07:12:10;;;;;;;0.63;0.63;;;21.80;52.10;;;;;;5039002;28;20893;-75
2024/01/18 07:14:39;;;;;;;3.70;1.10;;;21.80;52.10;;;;;;5037044;28;21004;-75
2024/01/18 07:17:07;;;;;;;0.83;0.63;;;21.80;52.20;;;;;;5040924;28;20504;-75
2024/01/18 07:19:37;;;;;;;0.60;0.60;;;21.80;52.20;;;;;;5040190;28;21058;-75
2024/01/18 07:22:07;;;;;;;0.87;0.87;;;21.80;52.20;;;;;;5041932;28;20471;-76
2024/01/18 07:24:36;;;;;;;1.43;0.80;;;21.80;52.10;;;;;;5043015;28;21348;-75
2024/01/18 07:27:09;;;;;;;1.00;0.80;;;21.80;52.10;;;;;;5050171;28;20465;-75
2024/01/18 07:29:37;;;;;;;0.70;0.70;;;21.80;52.10;;;;;;5043611;28;20538;-76
2024/01/18 07:32:06;;;;;;;1.73;0.90;;;21.90;52.00;;;;;;5034994;28;20895;-75
2024/01/18 07:34:36;;;;;;;1.20;0.80;;;21.90;52.00;;;;;;5030946;28;20988;-76
2024/01/18 07:37:05;;;;;;;0.83;0.83;;;21.90;51.90;;;;;;5036962;28;20557;-75
2024/01/18 07:39:36;;;;;;;1.17;0.90;;;21.90;51.90;;;;;;5046289;28;20461;-76
2024/01/18 07:42:06;;;;;;;0.80;0.80;;;21.90;51.80;;;;;;5042161;28;20466;-75
2024/01/18 07:44:35;;;;;;;1.33;0.83;;;21.90;51.90;;;;;;5052371;28;20449;-75
2024/01/18 07:47:03;;;;;;;1.30;1.07;;;21.90;51.80;;;;;;5042702;28;20454;-76
2024/01/18 07:49:31;;;;;;;0.80;0.80;;;21.90;51.80;;;;;;5033161;28;20467;-76
2024/01/18 07:52:01;;;;;;;1.13;0.80;;;21.90;51.80;;;;;;5046559;28;20446;-75
2024/01/18 07:54:29;;;;;;;1.07;0.97;;;21.90;51.80;;;;;;5038992;28;20462;-76
2024/01/18 07:56:58;;;;;;;1.00;0.80;;;21.90;51.80;;;;;;5041545;28;20464;-76
2024/01/18 07:59:26;;;;;;;2.70;0.83;;;21.80;51.80;;;;;;5032183;28;20482;-76
2024/01/18 08:01:54;;;;;;;1.73;1.03;;;21.80;51.90;;;;;;5050710;28;20442;-75
2024/01/18 08:04:23;;;;;;;4.50;1.00;;;21.80;52.10;;;;;;5054932;28;20492;-76
2024/01/18 08:06:52;;;;;;;2.97;0.93;;;21.80;52.20;;;;;;5038677;28;20491;-76
2024/01/18 08:09:23;;;;;;;2.30;1.33;;;21.80;52.20;;;;;;5046248;28;20549;-76
2024/01/18 08:11:51;;;;;;;1.00;0.90;;;21.80;52.10;;;;;;5054968;28;20484;-76
2024/01/18 08:14:22;;;;;;;2.57;1.50;;;21.90;52.20;;;;;;5065934;28;20959;-75
2024/01/18 08:16:50;;;;;;;2.70;1.10;;;21.90;52.40;;;;;;5034476;28;20469;-76
2024/01/18 08:19:19;;;;;;;2.47;1.10;;;21.90;52.40;;;;;;5043727;28;20450;-76
2024/01/18 08:21:47;;;;;;;3.50;0.90;;;21.90;52.50;;;;;;5043979;28;20449;-75
2024/01/18 08:24:16;;;;;;;2.90;0.70;;;21.90;52.50;;;;;;5047652;28;20430;-75
2024/01/18 08:26:45;;;;;;;2.10;1.20;;;22.00;52.40;;;;;;5047422;28;20540;-76
2024/01/18 08:29:14;;;;;;;3.27;1.40;;;22.00;52.30;;;;;;5043296;28;20964;-76
2024/01/18 08:31:42;;;;;;;1.30;1.00;;;22.00;52.20;;;;;;5049249;28;20432;-76
2024/01/18 08:34:11;;;;;;;3.27;1.60;;;22.00;52.10;;;;;;5049344;28;20472;-76
2024/01/18 08:36:39;;;;;;;1.70;0.97;;;22.00;52.00;;;;;;5049721;28;20470;-75
2024/01/18 08:39:08;;;;;;;2.93;1.30;;;22.00;52.00;;;;;;5048813;28;20454;-76
2024/01/18 08:41:36;;;;;;;2.00;1.00;;;22.00;52.00;;;;;;5043424;28;20436;-74
2024/01/18 08:44:06;;;;;;;1.10;1.03;;;22.00;52.00;;;;;;5049256;28;20802;-73
2024/01/18 08:46:34;;;;;;;0.80;0.80;;;22.00;51.90;;;;;;5049090;28;20453;-76
2024/01/18 08:49:02;;;;;;;1.50;1.07;;;21.90;51.90;;;;;;5049683;28;20459;-76
2024/01/18 08:51:31;;;;;;;1.80;1.23;;;21.90;52.10;;;;;;5041126;28;20471;-75
2024/01/18 08:53:59;;;;;;;0.90;0.90;;;21.90;52.00;;;;;;5033039;28;20442;-76
2024/01/18 08:56:27;;;;;;;2.13;1.00;;;21.90;52.00;;;;;;5032982;28;20454;-76
2024/01/18 08:58:59;;;;;;;0.97;0.87;;;21.90;51.90;;;;;;5051155;28;20450;-76
2024/01/18 09:01:28;;;;;;;1.40;1.13;;;21.90;52.00;;;;;;5051591;28;20492;-76
2024/01/18 09:03:57;;;;;;;0.70;0.70;;;21.90;51.90;;;;;;5052731;28;21000;-74
2024/01/18 09:06:25;;;;;;;1.37;0.87;;;21.90;52.00;;;;;;5052948;28;20525;-77
2024/01/18 09:08:54;;;;;;;1.87;0.90;;;21.90;51.90;;;;;;5052761;28;20448;-76
2024/01/18 09:11:22;;;;;;;0.77;0.73;;;21.90;52.00;;;;;;5053210;28;20482;-75
2024/01/18 09:13:51;;;;;;;1.27;1.13;;;22.00;52.00;;;;;;5045271;28;20508;-75
2024/01/18 09:16:19;;;;;;;1.03;0.77;;;22.00;52.00;;;;;;5038692;28;20476;-76
2024/01/18 09:18:49;;;;;;;1.17;0.80;;;22.00;51.90;;;;;;5047654;28;20458;-76
2024/01/18 09:21:41;;;;;;;1.20;0.80;;;22.00;51.80;;;;;;5035230;28;20538;-75
2024/01/18 09:24:09;;;;;;;0.60;0.57;;;22.10;51.70;;;;;;5031261;28;20948;-74
2024/01/18 09:26:38;;;;;;;0.70;0.70;;;22.10;51.90;;;;;;5049881;28;20450;-76
2024/01/18 09:29:06;;;;;;;2.20;0.80;;;22.10;51.70;;;;;;5050564;28;20440;-75
2024/01/18 09:31:35;;;;;;;0.97;0.87;;;22.10;51.70;;;;;;5048721;28;20448;-73
2024/01/18 09:34:11;;;;;;;1.53;1.13;;;22.10;51.60;;;;;;5049842;28;20438;-76
2024/01/18 09:36:40;;;;;;;1.37;0.73;;;22.10;51.60;;;;;;5036618;28;20457;-75
2024/01/18 09:39:15;;;;;;;0.80;0.80;;;22.00;51.60;;;;;;5042058;28;20470;-76
2024/01/18 09:41:49;;;;;;;0.63;0.63;;;22.00;51.60;;;;;;5047038;28;20872;-75
2024/01/18 09:44:23;;;;;;;1.00;0.80;;;22.00;51.60;;;;;;5048201;28;20520;-75
2024/01/18 09:46:53;;;;;;;1.00;0.70;;;22.00;51.60;;;;;;5042195;28;20491;-75
2024/01/18 09:49:23;;;;;;;1.07;0.97;;;22.00;51.60;;;;;;5030751;28;20463;-75
2024/01/18 09:51:52;;;;;;;0.97;0.97;;;22.00;51.60;;;;;;5044096;28;20452;-74
2024/01/18 09:54:20;;;;;;;0.70;0.70;;;22.00;51.70;;;;;;5068254;28;20461;-76
2024/01/18 09:56:53;;;;;;;0.60;0.60;;;21.90;51.70;;;;;;5052434;28;20552;-76
2024/01/18 09:59:22;;;;;;;2.10;1.07;;;21.90;51.70;;;;;;5046189;28;20458;-74
2024/01/18 10:01:51;;;;;;;1.47;0.77;;;21.90;51.80;;;;;;5052004;28;20803;-72
2024/01/18 10:04:20;;;;;;;0.90;0.80;;;22.00;51.90;;;;;;5048958;28;20458;-73
2024/01/18 10:06:50;;;;;;;0.80;0.80;;;22.00;52.10;;;;;;5050899;28;20502;-71
2024/01/18 10:09:19;;;;;;;0.67;0.67;;;22.00;52.30;;;;;;5047084;28;20798;-71
2024/01/18 10:11:47;;;;;;;0.80;0.57;;;22.10;52.20;;;;;;5045997;28;21212;-73
2024/01/18 10:14:16;;;;;;;0.93;0.90;;;22.10;52.40;;;;;;5053817;28;20444;-72
2024/01/18 10:16:44;;;;;;;0.93;0.80;;;22.20;52.40;;;;;;5046739;28;20462;-72
2024/01/18 10:19:14;;;;;;;0.50;0.50;;;22.30;52.30;;;;;;5044887;28;20479;-71
2024/01/18 10:21:44;;;;;;;1.63;0.70;;;22.30;52.20;;;;;;5053705;28;20453;-71
2024/01/18 10:24:17;;;;;;;1.13;0.80;;;22.40;52.10;;;;;;5048095;28;20999;-72
2024/01/18 10:26:46;;;;;;;0.70;0.60;;;22.40;52.00;;;;;;5049210;28;20533;-73
2024/01/18 10:29:14;;;;;;;0.60;0.60;;;22.50;51.90;;;;;;5047708;28;20500;-72
2024/01/18 10:31:42;;;;;;;2.20;0.80;;;22.50;51.80;;;;;;5050307;28;20869;-71
2024/01/18 10:34:11;;;;;;;0.50;0.50;;;22.60;51.80;;;;;;5045947;28;20513;-72
2024/01/18 10:36:39;;;;;;;0.73;0.73;;;22.60;51.50;;;;;;5048183;28;20477;-72
2024/01/18 10:39:17;;;;;;;0.47;0.47;;;22.70;51.40;;;;;;5049164;28;20471;-73
2024/01/18 10:41:46;;;;;;;0.90;0.60;;;22.80;51.40;;;;;;5043569;28;20455;-73
2024/01/18 10:44:15;;;;;;;0.70;0.60;;;22.80;51.20;;;;;;5048063;28;20455;-73
2024/01/18 10:46:44;;;;;;;0.73;0.60;;;22.90;51.20;;;;;;5051759;28;20804;-73
2024/01/18 10:49:13;;;;;;;0.77;0.60;;;22.90;51.10;;;;;;5046317;28;20466;-72
2024/01/18 10:51:42;;;;;;;1.73;0.70;;;23.00;51.10;;;;;;5050604;28;20447;-73
2024/01/18 10:54:11;;;;;;;1.43;0.80;;;23.10;51.00;;;;;;5046796;28;20456;-72
2024/01/18 10:56:59;;;;;;;1.53;0.97;;;23.10;50.80;;;;;;5048152;28;20452;-71
2024/01/18 10:59:29;;;;;;;1.00;0.90;;;23.20;50.70;;;;;;5053292;28;20475;-73
2024/01/18 11:01:59;;;;;;;0.90;0.60;;;23.20;50.60;;;;;;5045525;28;20811;-70
2024/01/18 11:04:28;;;;;;;0.70;0.70;;;23.30;50.50;;;;;;5048914;28;20458;-70
2024/01/18 11:06:58;;;;;;;1.10;1.00;;;23.40;50.60;;;;;;5049394;28;20483;-68
2024/01/18 11:09:29;;;;;;;0.87;0.87;;;23.40;50.50;;;;;;5052877;28;20439;-70
2024/01/18 11:12:00;;;;;;;0.80;0.60;;;23.50;50.40;;;;;;5050758;28;20439;-71
2024/01/18 11:14:29;;;;;;;0.60;0.60;;;23.60;50.20;;;;;;5055252;28;20543;-68
2024/01/18 11:17:02;;;;;;;1.07;0.70;;;23.70;50.20;;;;;;5050513;28;20435;-69
2024/01/18 11:19:43;;;;;;;2.10;1.10;;;23.70;50.20;;;;;;5051469;28;20469;-70
2024/01/18 11:22:11;;;;;;;1.10;0.80;;;23.80;50.30;;;;;;5044052;28;20455;-69
2024/01/18 11:24:40;;;;;;;1.63;1.37;;;23.90;50.20;;;;;;5050554;28;20446;-69
2024/01/18 11:27:21;;;;;;;1.80;0.97;;;23.90;50.00;;;;;;5052346;28;21539;-69
2024/01/18 11:29:50;;;;;;;1.37;0.93;;;23.90;49.90;;;;;;5049410;28;20811;-66
2024/01/18 11:32:20;;;;;;;4.40;0.80;;;23.90;50.00;;;;;;5046189;28;20439;-67
2024/01/18 11:34:49;;;;;;;1.20;1.10;;;23.90;50.00;;;;;;5047256;28;20462;-67
2024/01/18 11:37:20;;;;;;;0.83;0.70;;;23.80;50.10;;;;;;5051296;28;20962;-67
2024/01/18 11:39:55;;;;;;;0.70;0.70;;;23.80;50.00;;;;;;5046033;28;20482;-67
2024/01/18 11:42:27;;;;;;;1.47;0.60;;;23.80;50.10;;;;;;5047585;28;20557;-66
2024/01/18 11:44:56;;;;;;;0.90;0.80;;;23.70;50.20;;;;;;5050820;28;20447;-67
2024/01/18 11:47:28;;;;;;;0.60;0.60;;;23.70;50.20;;;;;;5050171;28;20444;-66
2024/01/18 11:49:57;;;;;;;0.60;0.60;;;23.60;50.40;;;;;;5043726;28;20446;-68
2024/01/18 11:52:28;;;;;;;0.80;0.80;;;23.50;50.50;;;;;;5048590;28;20448;-66
2024/01/18 11:54:59;;;;;;;0.77;0.77;;;23.40;50.80;;;;;;5049260;28;20454;-69
2024/01/18 11:57:29;;;;;;;1.37;0.83;;;23.40;50.90;;;;;;5043781;28;20803;-68
2024/01/18 11:59:58;;;;;;;0.80;0.70;;;23.30;50.70;;;;;;5046523;28;20957;-68
2024/01/18 12:02:28;;;;;;;0.80;0.60;;;23.20;50.90;;;;;;5042641;28;20463;-68
2024/01/18 12:04:57;;;;;;;1.00;0.70;;;23.10;50.90;;;;;;5045978;28;20455;-69
2024/01/18 12:07:26;;;;;;;2.40;0.80;;;23.10;50.50;;;;;;5038601;28;20490;-68
2024/01/18 12:09:54;;;;;;;0.83;0.70;;;23.10;50.60;;;;;;5049536;28;20496;-68
2024/01/18 12:12:23;;;;;;;0.73;0.70;;;23.00;50.60;;;;;;5041781;28;20488;-68
2024/01/18 12:14:52;;;;;;;0.90;0.80;;;22.90;50.70;;;;;;5034832;28;20446;-68
2024/01/18 12:17:21;;;;;;;0.73;0.73;;;22.90;50.80;;;;;;5039223;28;20795;-68
2024/01/18 12:19:49;;;;;;;0.70;0.70;;;22.80;50.80;;;;;;5034764;28;20471;-68
2024/01/18 12:22:19;;;;;;;1.33;0.70;;;22.80;50.90;;;;;;5052859;28;20505;-69
2024/01/18 12:24:49;;;;;;;1.47;0.73;;;22.70;51.00;;;;;;5039244;28;20856;-68
2024/01/18 12:27:18;;;;;;;0.70;0.70;;;22.70;51.00;;;;;;5035982;28;20522;-67
2024/01/18 12:29:47;;;;;;;0.67;0.50;;;22.70;51.10;;;;;;5037048;28;20454;-67
2024/01/18 12:32:18;;;;;;;2.07;0.80;;;22.70;51.20;;;;;;5045349;28;20458;-68
2024/01/18 12:34:47;;;;;;;2.17;1.17;;;22.70;51.10;;;;;;5057318;28;20480;-68
2024/01/18 12:37:15;;;;;;;2.00;1.10;;;22.70;51.30;;;;;;5052739;28;20565;-68
2024/01/18 12:39:44;;;;;;;2.10;1.17;;;22.70;51.30;;;;;;5047934;28;20550;-67
2024/01/18 12:42:12;;;;;;;1.87;0.90;;;22.70;51.30;;;;;;5052738;28;20782;-68
2024/01/18 12:44:41;;;;;;;2.03;1.43;;;22.70;51.30;;;;;;5050220;28;20451;-67
2024/01/18 12:47:10;;;;;;;2.43;1.37;;;22.70;51.40;;;;;;5065048;28;20491;-67
2024/01/18 12:49:40;;;;;;;2.30;1.90;;;22.70;51.50;;;;;;5052833;28;20454;-69
2024/01/18 12:52:09;;;;;;;2.67;1.37;;;22.70;51.40;;;;;;5054373;28;20443;-69
2024/01/18 12:54:37;;;;;;;3.17;1.60;;;22.70;51.50;;;;;;5051239;28;20430;-68
2024/01/18 12:57:06;;;;;;;4.33;1.90;;;22.70;51.50;;;;;;5048087;28;20455;-68